createdAt,value
2022-11-28T00:02:07.658Z,101131.59
2022-11-28T00:04:34.315Z,101120.00
2022-11-28T00:07:00.974Z,101120.78
2022-11-28T00:09:27.657Z,101120.44
2022-11-28T00:11:54.114Z,101120.06
2022-11-28T00:14:20.624Z,101117.38
2022-11-28T00:16:47.952Z,101115.03
2022-11-28T00:19:14.822Z,101106.91
2022-11-28T00:21:41.856Z,101107.34
2022-11-28T00:24:08.649Z,101112.06
2022-11-28T00:26:39.462Z,101109.00
2022-11-28T00:29:07.733Z,101101.22
2022-11-28T00:31:42.141Z,101106.31
2022-11-28T00:34:11.443Z,101099.41
2022-11-28T00:36:37.924Z,101091.72
2022-11-28T00:39:05.228Z,101090.13
2022-11-28T00:41:34.939Z,101087.09
2022-11-28T00:44:01.570Z,101081.69
2022-11-28T00:46:28.609Z,101089.47
2022-11-28T00:48:55.150Z,101086.75
2022-11-28T00:51:24.674Z,101087.53
2022-11-28T00:53:53.243Z,101089.47
2022-11-28T00:56:22.691Z,101078.19
2022-11-28T00:58:49.782Z,101069.31
2022-11-28T01:01:28.166Z,101065.88
2022-11-28T01:03:57.179Z,101063.19
2022-11-28T01:06:27.739Z,101063.63
2022-11-28T01:08:55.341Z,101069.03
2022-11-28T01:11:22.371Z,101066.66
2022-11-28T01:13:49.751Z,101057.00
2022-11-28T01:16:16.796Z,101052.72
2022-11-28T01:18:43.409Z,101039.63
2022-11-28T01:21:10.709Z,101048.16
2022-11-28T01:23:37.788Z,101045.47
2022-11-28T01:26:06.358Z,101050.53
2022-11-28T01:28:34.054Z,101043.19
2022-11-28T01:31:06.120Z,101033.16
2022-11-28T01:33:33.280Z,101040.13
2022-11-28T01:36:00.131Z,101043.63
2022-11-28T01:38:27.789Z,101046.75
2022-11-28T01:40:55.484Z,101041.78
2022-11-28T01:43:23.655Z,101044.50
2022-11-28T01:45:50.541Z,101041.41
2022-11-28T01:48:25.561Z,101044.13
2022-11-28T01:50:58.490Z,101039.94
2022-11-28T01:53:29.057Z,101042.28
2022-11-28T01:56:02.010Z,101041.94
2022-11-28T01:58:30.806Z,101036.94
2022-11-28T02:00:58.181Z,101037.38
2022-11-28T02:03:30.848Z,101031.19
2022-11-28T02:05:57.430Z,101027.00
2022-11-28T02:08:25.490Z,101039.38
2022-11-28T02:11:11.539Z,101032.03
2022-11-28T02:14:05.737Z,101028.97
2022-11-28T02:16:54.186Z,101026.72
2022-11-28T02:19:53.006Z,101025.94
2022-11-28T02:22:33.258Z,101019.78
2022-11-28T02:25:19.153Z,101017.53
2022-11-28T02:28:03.856Z,101020.66
2022-11-28T02:30:47.791Z,101015.25
2022-11-28T02:33:25.092Z,101018.38
2022-11-28T02:35:55.746Z,101024.56
2022-11-28T02:38:46.496Z,101010.25
2022-11-28T02:41:23.064Z,101017.59
2022-11-28T02:44:03.761Z,101019.50
2022-11-28T02:46:43.707Z,101007.56
2022-11-28T02:49:34.161Z,101019.16
2022-11-28T02:52:07.616Z,101017.22
2022-11-28T02:54:34.864Z,101019.16
2022-11-28T02:57:03.024Z,101009.91
2022-11-28T02:59:32.126Z,101010.69
2022-11-28T03:02:00.838Z,101011.47
2022-11-28T03:04:40.470Z,101010.69
2022-11-28T03:07:30.933Z,101014.94
2022-11-28T03:10:19.320Z,101013.47
2022-11-28T03:12:51.598Z,101020.81
2022-11-28T03:15:23.281Z,101011.91
2022-11-28T03:18:03.144Z,101006.50
2022-11-28T03:20:41.765Z,101008.47
2022-11-28T03:23:19.708Z,101001.16
2022-11-28T03:26:00.682Z,101008.47
2022-11-28T03:28:44.779Z,101003.06
2022-11-28T03:31:15.509Z,101005.34
2022-11-28T03:33:47.247Z,101007.25
2022-11-28T03:36:19.939Z,101008.41
2022-11-28T03:38:51.290Z,101018.53
2022-11-28T03:41:25.091Z,101007.25
2022-11-28T03:43:54.954Z,101009.97
2022-11-28T03:46:25.952Z,101015.03
2022-11-28T03:48:56.879Z,101011.56
2022-11-28T03:51:33.015Z,101012.34
2022-11-28T03:54:12.164Z,101010.75
2022-11-28T03:56:47.789Z,101024.28
2022-11-28T03:59:31.151Z,101018.94
2022-11-28T04:02:12.254Z,101021.66
2022-11-28T04:04:50.849Z,101019.31
2022-11-28T04:07:27.047Z,101030.50
2022-11-28T04:10:12.257Z,101029.34
2022-11-28T04:12:39.736Z,101030.13
2022-11-28T04:15:17.450Z,101026.63
2022-11-28T04:17:52.783Z,101026.22
2022-11-28T04:20:26.211Z,101020.03
2022-11-28T04:22:58.896Z,101018.88
2022-11-28T04:25:28.635Z,101027.78
2022-11-28T04:28:00.416Z,101027.00
2022-11-28T04:30:27.370Z,101027.78
2022-11-28T04:32:59.722Z,101027.41
2022-11-28T04:35:33.878Z,101023.22
2022-11-28T04:38:03.540Z,101018.59
2022-11-28T04:40:33.251Z,101024.78
2022-11-28T04:43:04.240Z,101024.03
2022-11-28T04:45:34.889Z,101023.22
2022-11-28T04:48:01.788Z,101024.78
2022-11-28T04:50:40.194Z,101025.56
2022-11-28T04:53:16.265Z,101025.91
2022-11-28T04:55:50.347Z,101025.91
2022-11-28T04:58:22.869Z,101032.91
2022-11-28T05:00:52.845Z,101026.72
2022-11-28T05:03:20.304Z,101032.50
2022-11-28T05:05:50.163Z,101024.38
2022-11-28T05:08:18.313Z,101033.25
2022-11-28T05:10:45.651Z,101035.63
2022-11-28T05:13:12.339Z,101040.59
2022-11-28T05:15:39.276Z,101039.47
2022-11-28T05:18:06.089Z,101046.44
2022-11-28T05:20:32.800Z,101045.31
2022-11-28T05:22:59.318Z,101046.44
2022-11-28T05:25:26.209Z,101051.53
2022-11-28T05:27:53.068Z,101050.72
2022-11-28T05:30:20.812Z,101051.88
2022-11-28T05:32:47.364Z,101054.56
2022-11-28T05:35:14.193Z,101058.06
2022-11-28T05:37:40.833Z,101059.22
2022-11-28T05:40:07.980Z,101053.41
2022-11-28T05:42:35.624Z,101054.22
2022-11-28T05:45:03.675Z,101065.41
2022-11-28T05:47:31.622Z,101056.94
2022-11-28T05:49:58.462Z,101063.47
2022-11-28T05:52:25.197Z,101054.56
2022-11-28T05:54:51.794Z,101057.28
2022-11-28T05:57:18.289Z,101051.88
2022-11-28T05:59:45.185Z,101055.00
2022-11-28T06:02:11.949Z,101056.50
2022-11-28T06:04:41.759Z,101058.84
2022-11-28T06:07:08.720Z,101059.66
2022-11-28T06:09:36.258Z,101066.63
2022-11-28T06:12:04.105Z,101070.09
2022-11-28T06:14:30.594Z,101060.41
2022-11-28T06:16:57.133Z,101069.31
2022-11-28T06:19:23.705Z,101066.97
2022-11-28T06:21:50.875Z,101060.41
2022-11-28T06:24:17.422Z,101061.19
2022-11-28T06:26:44.613Z,101070.09
2022-11-28T06:29:11.100Z,101070.09
2022-11-28T06:31:37.664Z,101076.31
2022-11-28T06:34:04.262Z,101074.38
2022-11-28T06:36:30.997Z,101074.72
2022-11-28T06:38:57.729Z,101073.19
2022-11-28T06:41:24.431Z,101075.09
2022-11-28T06:43:50.983Z,101082.06
2022-11-28T06:46:20.195Z,101085.56
2022-11-28T06:48:48.072Z,101087.50
2022-11-28T06:51:14.613Z,101085.56
2022-11-28T06:53:41.541Z,101082.84
2022-11-28T06:56:11.427Z,101088.28
2022-11-28T06:58:38.165Z,101090.19
2022-11-28T07:01:09.150Z,101096.41
2022-11-28T07:03:36.216Z,101091.75
2022-11-28T07:06:04.088Z,101090.25
2022-11-28T07:08:31.893Z,101096.47
2022-11-28T07:11:06.430Z,101093.78
2022-11-28T07:13:32.950Z,101107.31
2022-11-28T07:15:59.464Z,101103.44
2022-11-28T07:18:25.949Z,101102.34
2022-11-28T07:20:52.417Z,101104.66
2022-11-28T07:23:18.984Z,101107.38
2022-11-28T07:25:45.474Z,101103.09
2022-11-28T07:28:11.998Z,101107.75
2022-11-28T07:30:38.497Z,101102.75
2022-11-28T07:33:05.005Z,101109.72
2022-11-28T07:35:34.397Z,101115.16
2022-11-28T07:38:00.925Z,101112.78
2022-11-28T07:40:28.718Z,101115.50
2022-11-28T07:42:55.215Z,101124.00
2022-11-28T07:45:22.900Z,101125.19
2022-11-28T07:47:49.608Z,101130.63
2022-11-28T07:50:16.222Z,101130.63
2022-11-28T07:52:42.736Z,101119.78
2022-11-28T07:55:09.311Z,101131.03
2022-11-28T07:57:35.817Z,101129.13
2022-11-28T08:00:02.515Z,101127.19
2022-11-28T08:02:32.369Z,101129.13
2022-11-28T08:05:00.021Z,101131.81
2022-11-28T08:07:26.625Z,101131.81
2022-11-28T08:09:53.177Z,101135.31
2022-11-28T08:12:19.658Z,101129.56
2022-11-28T08:14:46.417Z,101130.31
2022-11-28T08:17:12.874Z,101131.53
2022-11-28T08:19:39.351Z,101126.56
2022-11-28T08:22:05.824Z,101134.69
2022-11-28T08:24:33.206Z,101133.56
2022-11-28T08:27:00.165Z,101133.56
2022-11-28T08:29:26.680Z,101142.88
2022-11-28T08:31:53.325Z,101149.88
2022-11-28T08:34:19.809Z,101150.63
2022-11-28T08:36:47.404Z,101152.56
2022-11-28T08:39:24.096Z,101147.94
2022-11-28T08:41:51.923Z,101155.28
2022-11-28T08:44:18.667Z,101152.22
2022-11-28T08:46:45.237Z,101149.16
2022-11-28T08:49:11.858Z,101161.56
2022-11-28T08:51:38.384Z,101157.69
2022-11-28T08:54:05.101Z,101165.47
2022-11-28T08:56:31.849Z,101155.41
2022-11-28T08:58:58.380Z,101157.00
2022-11-28T09:01:27.566Z,101155.06
2022-11-28T09:03:55.565Z,101158.56
2022-11-28T09:06:23.062Z,101159.38
2022-11-28T09:08:50.466Z,101160.94
2022-11-28T09:11:19.117Z,101165.63
2022-11-28T09:13:47.078Z,101160.63
2022-11-28T09:16:14.622Z,101163.44
2022-11-28T09:18:41.284Z,101163.44
2022-11-28T09:21:10.821Z,101164.63
2022-11-28T09:23:38.767Z,101166.19
2022-11-28T09:26:15.069Z,101169.28
2022-11-28T09:28:41.613Z,101170.84
2022-11-28T09:31:09.098Z,101167.00
2022-11-28T09:33:36.383Z,101172.03
2022-11-28T09:36:06.746Z,101167.44
2022-11-28T09:38:33.550Z,101160.53
2022-11-28T09:41:02.082Z,101175.31
2022-11-28T09:43:37.413Z,101177.22
2022-11-28T09:46:12.061Z,101177.66
2022-11-28T09:48:45.180Z,101175.72
2022-11-28T09:51:22.423Z,101174.22
2022-11-28T09:54:02.456Z,101171.16
2022-11-28T09:56:28.968Z,101177.03
2022-11-28T09:58:58.916Z,101173.16
2022-11-28T10:01:34.568Z,101177.84
2022-11-28T10:04:09.790Z,101175.16
2022-11-28T10:06:44.393Z,101176.38
2022-11-28T10:09:34.617Z,101179.88
2022-11-28T10:12:15.286Z,101180.28
2022-11-28T10:14:49.916Z,101191.56
2022-11-28T10:17:23.836Z,101182.63
2022-11-28T10:19:57.480Z,101192.00
2022-11-28T10:22:42.055Z,101190.06
2022-11-28T10:25:24.371Z,101192.41
2022-11-28T10:27:51.270Z,101188.56
2022-11-28T10:30:23.363Z,101185.84
2022-11-28T10:33:01.702Z,101187.41
2022-11-28T10:35:43.477Z,101186.63
2022-11-28T10:38:13.116Z,101180.84
2022-11-28T10:40:48.560Z,101185.13
2022-11-28T10:43:50.238Z,101178.56
2022-11-28T10:46:30.905Z,101182.84
2022-11-28T10:49:03.461Z,101184.47
2022-11-28T10:51:31.895Z,101186.06
2022-11-28T10:54:10.838Z,101191.09
2022-11-28T10:56:49.377Z,101190.75
2022-11-28T10:59:23.292Z,101194.63
2022-11-28T11:01:52.307Z,101182.63
2022-11-28T11:04:23.313Z,101179.22
2022-11-28T11:07:14.871Z,101181.94
2022-11-28T11:09:45.609Z,101175.78
2022-11-28T11:12:23.112Z,101181.63
2022-11-28T11:14:49.670Z,101175.03
2022-11-28T11:17:37.873Z,101176.63
2022-11-28T11:20:28.284Z,101187.09
2022-11-28T11:22:57.432Z,101184.03
2022-11-28T11:25:26.051Z,101191.81
2022-11-28T11:27:55.415Z,101200.31
2022-11-28T11:30:31.335Z,101191.81
2022-11-28T11:33:00.219Z,101199.19
2022-11-28T11:35:29.953Z,101203.00
2022-11-28T11:38:17.136Z,101207.31
2022-11-28T11:40:44.191Z,101199.19
2022-11-28T11:43:32.859Z,101194.16
2022-11-28T11:46:12.034Z,101192.25
2022-11-28T11:48:41.830Z,101189.16
2022-11-28T11:51:21.434Z,101191.50
2022-11-28T11:53:48.297Z,101198.53
2022-11-28T11:56:15.044Z,101207.06
2022-11-28T11:58:47.712Z,101205.94
2022-11-28T12:01:18.149Z,101201.28
2022-11-28T12:03:55.114Z,101199.00
2022-11-28T12:06:27.923Z,101202.50
2022-11-28T12:09:09.223Z,101208.34
2022-11-28T12:11:46.522Z,101195.97
2022-11-28T12:14:33.262Z,101199.94
2022-11-28T12:20:36.138Z,101206.19
2022-11-28T12:23:17.230Z,101202.69
2022-11-28T12:25:54.955Z,101202.34
2022-11-28T12:28:45.454Z,101202.34
2022-11-28T12:31:21.953Z,101203.88
2022-11-28T12:33:52.406Z,101203.53
2022-11-28T12:36:33.200Z,101204.31
2022-11-28T12:39:02.957Z,101203.19
2022-11-28T12:41:44.316Z,101205.91
2022-11-28T12:44:26.222Z,101205.91
2022-11-28T12:46:59.568Z,101205.09
2022-11-28T12:49:40.215Z,101200.47
2022-11-28T12:52:23.729Z,101198.97
2022-11-28T12:54:54.277Z,101204.38
2022-11-28T12:57:50.104Z,101205.59
2022-11-28T13:00:22.050Z,101198.22
2022-11-28T13:03:05.237Z,101199.00
2022-11-28T13:05:41.049Z,101205.25
2022-11-28T13:08:20.394Z,101209.09
2022-11-28T13:11:04.508Z,101204.44
2022-11-28T13:13:39.767Z,101202.94
2022-11-28T13:16:26.469Z,101215.34
2022-11-28T13:19:03.764Z,101215.72
2022-11-28T13:21:48.156Z,101215.72
2022-11-28T13:24:18.625Z,101227.06
2022-11-28T13:27:00.012Z,101218.16
2022-11-28T13:29:36.662Z,101217.00
2022-11-28T13:32:19.007Z,101218.91
2022-11-28T13:34:46.812Z,101218.56
2022-11-28T13:40:34.191Z,101214.34
2022-11-28T13:43:08.146Z,101224.03
2022-11-28T13:45:39.186Z,101231.06
2022-11-28T13:49:06.125Z,101229.88
2022-11-28T13:51:30.585Z,101232.59
2022-11-28T13:54:17.069Z,101236.91
2022-11-28T13:56:46.356Z,101236.53
2022-11-28T13:59:22.062Z,101243.09
2022-11-28T14:01:56.555Z,101235.31
2022-11-28T14:04:23.936Z,101235.31
2022-11-28T14:06:59.152Z,101244.25
2022-11-28T14:09:34.600Z,101250.84
2022-11-28T14:12:19.315Z,101252.38
2022-11-28T14:15:08.520Z,101254.31
2022-11-28T14:17:37.088Z,101251.59
2022-11-28T14:20:27.004Z,101258.63
2022-11-28T14:23:14.169Z,101266.75
2022-11-28T14:25:45.722Z,101259.75
2022-11-28T14:28:22.893Z,101262.09
2022-11-28T14:30:50.799Z,101260.91
2022-11-28T14:33:32.421Z,101263.63
2022-11-28T14:36:04.761Z,101263.25
2022-11-28T14:38:31.295Z,101270.25
2022-11-28T14:41:04.158Z,101269.81
2022-11-28T14:43:31.763Z,101275.25
2022-11-28T14:46:20.826Z,101273.31
2022-11-28T14:48:57.631Z,101283.41
2022-11-28T14:52:30.940Z,101277.53
2022-11-28T14:54:54.776Z,101272.13
2022-11-28T14:57:28.876Z,101272.91
2022-11-28T14:59:58.706Z,101279.47
2022-11-28T15:02:45.834Z,101271.34
2022-11-28T15:05:22.782Z,101277.91
2022-11-28T15:08:22.413Z,101273.25
2022-11-28T15:10:56.003Z,101275.97
2022-11-28T15:13:54.923Z,101281.03
2022-11-28T15:16:24.020Z,101284.91
2022-11-28T15:18:56.932Z,101281.38
2022-11-28T15:21:23.639Z,101284.91
2022-11-28T15:23:52.607Z,101288.75
2022-11-28T15:26:22.588Z,101287.97
2022-11-28T15:28:49.430Z,101291.47
2022-11-28T15:31:22.705Z,101296.91
2022-11-28T15:33:50.904Z,101293.41
2022-11-28T15:36:27.192Z,101291.84
2022-11-28T15:38:55.687Z,101294.56
2022-11-28T15:41:24.528Z,101300.34
2022-11-28T15:43:53.091Z,101302.28
2022-11-28T15:46:27.081Z,101311.53
2022-11-28T15:48:55.008Z,101308.06
2022-11-28T15:51:33.641Z,101312.69
2022-11-28T15:54:31.811Z,101323.13
2022-11-28T15:56:59.917Z,101322.34
2022-11-28T15:59:26.661Z,101316.13
2022-11-28T16:01:59.520Z,101328.13
2022-11-28T16:04:59.743Z,101324.56
2022-11-28T16:07:28.732Z,101320.28
2022-11-28T16:10:01.857Z,101315.22
2022-11-28T16:12:28.747Z,101324.44
2022-11-28T16:15:01.647Z,101323.13
2022-11-28T16:17:32.327Z,101328.91
2022-11-28T16:20:00.567Z,101337.44
2022-11-28T16:22:32.609Z,101339.34
2022-11-28T16:25:12.075Z,101349.84
2022-11-28T16:27:41.873Z,101359.13
2022-11-28T16:30:33.517Z,101359.56
2022-11-28T16:33:00.088Z,101350.63
2022-11-28T16:35:35.112Z,101347.47
2022-11-28T16:38:18.222Z,101351.34
2022-11-28T16:40:45.993Z,101356.75
2022-11-28T16:43:24.524Z,101356.75
2022-11-28T16:46:00.327Z,101359.81
2022-11-28T16:48:32.518Z,101361.75
2022-11-28T16:51:22.018Z,101371.09
2022-11-28T16:53:51.763Z,101368.03
2022-11-28T16:56:30.396Z,101368.03
2022-11-28T16:59:07.092Z,101370.75
2022-11-28T17:01:35.070Z,101368.03
2022-11-28T17:04:01.916Z,101370.31
2022-11-28T17:06:34.251Z,101369.97
2022-11-28T17:09:01.662Z,101379.25
2022-11-28T17:11:32.615Z,101380.03
2022-11-28T17:14:02.565Z,101389.31
2022-11-28T17:16:38.488Z,101383.47
2022-11-28T17:19:05.395Z,101383.81
2022-11-28T17:21:35.490Z,101388.00
2022-11-28T17:24:02.145Z,101394.16
2022-11-28T17:26:29.645Z,101398.38
2022-11-28T17:28:57.929Z,101392.84
2022-11-28T17:31:24.504Z,101393.59
2022-11-28T17:33:51.144Z,101396.97
2022-11-28T17:36:17.627Z,101401.56
2022-11-28T17:38:44.066Z,101396.81
2022-11-28T17:41:13.550Z,101394.84
2022-11-28T17:43:40.871Z,101406.75
2022-11-28T17:46:07.480Z,101404.28
2022-11-28T17:48:33.945Z,101403.44
2022-11-28T17:51:02.052Z,101409.97
2022-11-28T17:53:28.598Z,101407.22
2022-11-28T17:55:59.049Z,101410.59
2022-11-28T17:58:25.966Z,101415.94
2022-11-28T18:00:59.970Z,101415.84
2022-11-28T18:03:27.831Z,101418.13
2022-11-28T18:05:54.315Z,101419.97
2022-11-28T18:08:22.227Z,101416.38
2022-11-28T18:10:49.324Z,101422.47
2022-11-28T18:13:17.466Z,101429.72
2022-11-28T18:15:46.343Z,101419.94
2022-11-28T18:18:12.903Z,101424.91
2022-11-28T18:20:39.396Z,101420.63
2022-11-28T18:23:05.895Z,101423.78
2022-11-28T18:25:32.518Z,101434.25
2022-11-28T18:27:59.151Z,101435.31
2022-11-28T18:30:25.704Z,101438.38
2022-11-28T18:32:52.218Z,101434.44
2022-11-28T18:35:19.458Z,101433.19
2022-11-28T18:37:46.212Z,101434.34
2022-11-28T18:40:13.148Z,101438.53
2022-11-28T18:42:40.003Z,101435.72
2022-11-28T18:45:07.103Z,101449.63
2022-11-28T18:47:35.658Z,101431.38
2022-11-28T18:50:02.233Z,101442.09
2022-11-28T18:52:28.702Z,101448.31
2022-11-28T18:54:55.227Z,101448.31
2022-11-28T18:57:21.791Z,101449.78
2022-11-28T18:59:54.743Z,101452.06
2022-11-28T19:02:21.718Z,101462.09
2022-11-28T19:04:48.265Z,101458.59
2022-11-28T19:07:14.787Z,101457.81
2022-11-28T19:09:41.553Z,101467.06
2022-11-28T19:12:08.247Z,101467.06
2022-11-28T19:14:34.858Z,101469.75
2022-11-28T19:17:03.377Z,101465.16
2022-11-28T19:19:30.263Z,101470.22
2022-11-28T19:21:57.113Z,101467.06
2022-11-28T19:24:23.706Z,101471.34
2022-11-28T19:26:50.427Z,101469.88
2022-11-28T19:29:17.094Z,101473.81
2022-11-28T19:31:43.656Z,101471.88
2022-11-28T19:34:12.316Z,101476.97
2022-11-28T19:36:42.479Z,101474.25
2022-11-28T19:39:16.888Z,101482.38
2022-11-28T19:41:43.739Z,101471.53
2022-11-28T19:44:11.449Z,101475.81
2022-11-28T19:46:38.337Z,101474.69
2022-11-28T19:49:06.406Z,101474.69
2022-11-28T19:51:33.278Z,101484.38
2022-11-28T19:54:03.574Z,101479.41
2022-11-28T19:56:31.366Z,101481.78
2022-11-28T19:58:58.558Z,101492.28
2022-11-28T20:01:25.248Z,101493.50
2022-11-28T20:03:52.541Z,101485.81
2022-11-28T20:06:29.002Z,101499.00
2022-11-28T20:08:58.867Z,101493.56
2022-11-28T20:11:28.328Z,101499.09
2022-11-28T20:13:57.439Z,101501.47
2022-11-28T20:16:24.578Z,101508.91
2022-11-28T20:18:51.103Z,101506.19
2022-11-28T20:21:19.763Z,101508.56
2022-11-28T20:23:48.661Z,101502.00
2022-11-28T20:26:16.999Z,101499.28
2022-11-28T20:28:44.069Z,101506.28
2022-11-28T20:31:19.749Z,101503.66
2022-11-28T20:33:47.611Z,101512.22
2022-11-28T20:36:16.311Z,101507.72
2022-11-28T20:38:43.000Z,101515.16
2022-11-28T20:41:13.116Z,101522.94
2022-11-28T20:43:40.609Z,101529.50
2022-11-28T20:46:11.239Z,101526.44
2022-11-28T20:48:38.450Z,101524.88
2022-11-28T20:51:09.904Z,101520.22
2022-11-28T20:53:39.278Z,101531.06
2022-11-28T20:56:10.899Z,101530.28
2022-11-28T20:58:39.619Z,101534.47
2022-11-28T21:01:06.584Z,101534.94
2022-11-28T21:03:33.549Z,101533.78
2022-11-28T21:06:01.501Z,101543.50
2022-11-28T21:08:31.380Z,101540.78
2022-11-28T21:10:57.826Z,101535.00
2022-11-28T21:13:24.462Z,101534.66
2022-11-28T21:15:52.102Z,101540.09
2022-11-28T21:18:18.618Z,101540.19
2022-11-28T21:20:46.266Z,101545.25
2022-11-28T21:23:14.951Z,101552.16
2022-11-28T21:25:43.429Z,101550.94
2022-11-28T21:28:11.128Z,101547.44
2022-11-28T21:30:45.507Z,101550.81
2022-11-28T21:33:14.162Z,101551.19
2022-11-28T21:35:40.730Z,101561.75
2022-11-28T21:38:09.482Z,101563.00
2022-11-28T21:40:36.029Z,101569.19
2022-11-28T21:43:02.565Z,101561.50
2022-11-28T21:45:29.134Z,101566.94
2022-11-28T21:47:55.765Z,101562.31
2022-11-28T21:50:22.313Z,101558.78
2022-11-28T21:52:48.791Z,101564.66
2022-11-28T21:55:15.369Z,101563.88
2022-11-28T21:57:44.319Z,101566.94
2022-11-28T22:00:25.881Z,101562.31
2022-11-28T22:05:45.040Z,101573.94
2022-11-28T22:08:11.753Z,101567.72
2022-11-28T22:10:38.307Z,101575.06
2022-11-28T22:13:04.745Z,101580.13
2022-11-28T22:15:32.207Z,101581.28
2022-11-28T22:17:58.627Z,101580.47
2022-11-28T22:20:25.156Z,101580.47
2022-11-28T22:22:51.653Z,101584.00
2022-11-28T22:25:18.190Z,101582.06
2022-11-28T22:27:44.637Z,101588.28
2022-11-28T22:30:11.564Z,101580.91
2022-11-28T22:32:37.993Z,101587.13
2022-11-28T22:35:07.039Z,101587.13
2022-11-28T22:37:34.411Z,101595.69
2022-11-28T22:40:00.986Z,101594.13
2022-11-28T22:42:27.549Z,101594.13
2022-11-28T22:44:54.052Z,101589.50
2022-11-28T22:47:20.781Z,101596.50
2022-11-28T22:49:47.330Z,101602.25
2022-11-28T22:52:13.827Z,101600.34
2022-11-28T22:54:40.346Z,101604.63
2022-11-28T22:57:06.823Z,101603.81
2022-11-28T22:59:35.193Z,101611.97
2022-11-28T23:02:02.840Z,101604.97
2022-11-28T23:04:29.525Z,101614.66
2022-11-28T23:06:55.988Z,101603.03
2022-11-28T23:09:22.478Z,101600.34
2022-11-28T23:11:49.084Z,101596.50
2022-11-28T23:14:15.587Z,101605.09
2022-11-28T23:16:43.831Z,101614.00
2022-11-28T23:19:13.536Z,101607.78
2022-11-28T23:21:43.434Z,101615.94
2022-11-28T23:24:14.868Z,101605.88
2022-11-28T23:26:42.255Z,101608.56
2022-11-28T23:29:09.226Z,101614.00
2022-11-28T23:31:38.331Z,101607.78
2022-11-28T23:34:06.083Z,101617.03
2022-11-28T23:36:42.150Z,101618.19
2022-11-28T23:39:13.887Z,101613.22
2022-11-28T23:41:41.628Z,101615.13
2022-11-28T23:44:11.084Z,101616.72
2022-11-28T23:46:38.162Z,101622.91
2022-11-28T23:49:05.639Z,101626.41
2022-11-28T23:51:32.274Z,101623.69
2022-11-28T23:53:58.792Z,101624.47
2022-11-28T23:56:28.602Z,101622.91
2022-11-28T23:58:56.191Z,101629.47
